< < Back
Terminal Aerodrome Forecast


Current Version              Previous Versions:   1  2  3  4  5  6  7  8  9  

Terminal Aerodrome Forecast

059
FTUS42 KILM 310600 CCA
TAFFLO
TAF COR
KFLO 310600Z 3106/3124 03004KT P6SM SCT050
     FM311400 02008KT P6SM SCT045
     FM311800 35007KT P6SM SCT050 BKN120=

Latest METAR

838
SAUS70 KWBC 310800 RRH
MTRFLO
METAR KFLO 310753Z AUTO 04003KT 10SM CLR 09/07 A2992 RMK AO2 SLP129
T00890072


USA.gov is the U.S. government's official web portal to all federal, state and local government web resources and services.